Time;durP1;ratioP1;P1;durP2;ratioP2;P2;SDS_P1;SDS_P2;PMS_P1;PMS_P2;Temp;Humidity;BMP_temperature;BMP_pressure;BME280_temperature;BME280_humidity;BME280_pressure;Samples;Min_cycle;Max_cycle;Signal;HPM_P1;HPM_P2
2024/03/31 00:01:05;;;;;;;5.50;3.72;;;9.80;99.90;;;;;;4948654;29;20043;-86
2024/03/31 00:03:35;;;;;;;5.72;3.70;;;9.30;99.90;;;;;;4957078;29;20077;-86
2024/03/31 00:06:02;;;;;;;5.88;3.80;;;9.30;99.90;;;;;;4956463;29;20133;-86
2024/03/31 00:08:29;;;;;;;6.93;4.30;;;9.30;99.90;;;;;;4954570;29;20123;-85
2024/03/31 00:11:03;;;;;;;5.85;3.80;;;9.30;99.90;;;;;;4956035;29;20059;-86
2024/03/31 00:13:30;;;;;;;4.88;3.20;;;9.30;99.90;;;;;;4956217;29;20039;-86
2024/03/31 00:15:56;;;;;;;6.43;3.28;;;9.60;99.90;;;;;;4953961;29;20087;-86
2024/03/31 00:18:23;;;;;;;6.68;3.20;;;9.20;99.90;;;;;;4943857;29;20114;-86
2024/03/31 00:20:58;;;;;;;4.82;3.42;;;9.20;99.90;;;;;;4954296;29;20039;-86
2024/03/31 00:23:25;;;;;;;5.20;3.35;;;9.20;99.90;;;;;;4956211;29;20378;-86
2024/03/31 00:25:56;;;;;;;5.72;3.60;;;9.20;99.90;;;;;;4969492;29;20107;-86
2024/03/31 00:28:23;;;;;;;6.22;3.83;;;9.50;99.90;;;;;;4960636;29;20048;-86
2024/03/31 00:30:57;;;;;;;7.15;3.85;;;9.40;99.90;;;;;;4955441;29;20493;-85
2024/03/31 00:33:24;;;;;;;5.75;3.92;;;9.00;99.90;;;;;;4971959;29;20548;-86
2024/03/31 00:35:56;;;;;;;6.65;4.00;;;9.40;99.90;;;;;;4972283;29;20070;-86
2024/03/31 00:38:24;;;;;;;5.65;3.72;;;8.90;99.90;;;;;;4955910;29;20042;-85
2024/03/31 00:40:51;;;;;;;7.13;4.28;;;8.90;99.90;;;;;;4954809;29;20042;-86
2024/03/31 00:43:18;;;;;;;6.90;4.70;;;8.80;99.90;;;;;;4957726;29;20043;-86
2024/03/31 00:45:44;;;;;;;6.25;4.22;;;8.80;99.90;;;;;;4957238;29;20046;-86
2024/03/31 00:48:13;;;;;;;7.05;4.85;;;9.10;99.90;;;;;;4959388;29;20126;-85
2024/03/31 00:50:40;;;;;;;8.32;4.50;;;8.60;99.90;;;;;;4960252;29;20142;-86
2024/03/31 00:53:07;;;;;;;7.35;4.63;;;8.60;99.90;;;;;;4960912;28;20516;-86
2024/03/31 00:55:33;;;;;;;8.57;4.53;;;8.60;99.90;;;;;;4963903;29;20093;-86
2024/03/31 00:58:00;;;;;;;7.57;4.93;;;8.90;99.90;;;;;;4951567;29;20040;-86
2024/03/31 01:00:27;;;;;;;7.18;5.03;;;8.50;99.90;;;;;;4959777;29;20122;-86
2024/03/31 01:02:53;;;;;;;8.15;5.80;;;8.50;99.90;;;;;;4952819;29;20042;-86
2024/03/31 01:05:20;;;;;;;8.02;5.45;;;8.40;99.90;;;;;;4968653;28;20042;-86
2024/03/31 01:07:47;;;;;;;10.65;5.68;;;9.10;99.90;;;;;;4975282;29;20820;-86
2024/03/31 01:10:14;;;;;;;10.70;5.22;;;8.90;99.90;;;;;;4956914;29;20049;-86
2024/03/31 01:12:41;;;;;;;9.27;5.55;;;8.30;99.90;;;;;;4959444;29;20130;-86
2024/03/31 01:15:07;;;;;;;11.10;5.70;;;8.40;99.90;;;;;;4949608;29;20490;-86
2024/03/31 01:17:37;;;;;;;7.45;5.03;;;8.20;99.90;;;;;;4974938;29;20520;-86
2024/03/31 01:20:03;;;;;;;9.27;5.78;;;8.90;99.90;;;;;;4959435;29;20035;-85
2024/03/31 01:22:31;;;;;;;12.00;6.07;;;8.20;99.90;;;;;;4965693;29;20044;-86
2024/03/31 01:24:58;;;;;;;8.70;5.32;;;8.70;99.90;;;;;;4959369;29;20045;-86
2024/03/31 01:27:24;;;;;;;9.85;5.68;;;8.10;99.90;;;;;;4956364;29;20412;-86
2024/03/31 01:29:51;;;;;;;9.25;5.45;;;8.00;99.90;;;;;;4959091;29;20042;-86
2024/03/31 01:32:18;;;;;;;9.57;5.32;;;8.00;99.90;;;;;;4959448;29;20043;-86
2024/03/31 01:34:44;;;;;;;8.88;5.25;;;8.00;99.90;;;;;;4957980;29;20460;-86
2024/03/31 01:37:11;;;;;;;8.73;5.63;;;8.30;99.90;;;;;;4958952;29;20046;-86
2024/03/31 01:39:38;;;;;;;9.85;5.28;;;7.90;99.90;;;;;;4959627;28;20110;-86
2024/03/31 01:42:04;;;;;;;9.35;5.53;;;7.90;99.90;;;;;;4976502;29;20062;-86
2024/03/31 01:44:31;;;;;;;9.77;5.88;;;7.90;99.90;;;;;;4958926;29;20081;-86
2024/03/31 01:46:58;;;;;;;7.53;5.18;;;7.90;99.90;;;;;;4957312;28;20035;-86
2024/03/31 01:49:24;;;;;;;9.40;5.28;;;7.90;99.90;;;;;;4959244;29;20046;-86
2024/03/31 01:51:51;;;;;;;9.13;5.20;;;8.30;99.90;;;;;;4955298;29;20122;-86
2024/03/31 01:54:18;;;;;;;9.07;5.40;;;7.80;99.90;;;;;;4958893;29;20496;-85
2024/03/31 01:56:45;;;;;;;7.55;4.95;;;8.10;99.90;;;;;;4985081;28;20099;-86
2024/03/31 01:59:12;;;;;;;8.20;5.45;;;7.80;99.90;;;;;;4950875;29;20250;-86
2024/03/31 02:01:38;;;;;;;8.43;4.70;;;7.80;99.90;;;;;;4958903;29;20126;-86
2024/03/31 02:04:05;;;;;;;8.23;5.50;;;7.90;99.90;;;;;;4958473;29;20401;-86
2024/03/31 02:06:32;;;;;;;7.65;4.60;;;7.70;99.90;;;;;;4954064;29;20059;-86
2024/03/31 02:08:58;;;;;;;8.95;4.60;;;7.70;99.90;;;;;;4948542;29;20047;-86
2024/03/31 02:11:25;;;;;;;9.10;5.10;;;8.40;99.90;;;;;;4958023;29;20050;-86
2024/03/31 02:13:51;;;;;;;7.45;5.05;;;7.70;99.90;;;;;;4958132;29;20102;-86
2024/03/31 02:16:20;;;;;;;9.50;4.75;;;7.60;99.90;;;;;;4953373;29;20043;-86
2024/03/31 02:18:47;;;;;;;7.57;4.90;;;8.10;99.90;;;;;;4952027;29;20039;-86
2024/03/31 02:21:14;;;;;;;7.35;4.88;;;8.40;99.90;;;;;;4972882;29;20551;-86
2024/03/31 02:23:40;;;;;;;8.73;4.88;;;8.40;99.90;;;;;;4974294;29;20042;-86
2024/03/31 02:26:07;;;;;;;8.77;5.22;;;7.50;99.90;;;;;;4974039;29;20043;-86
2024/03/31 02:28:35;;;;;;;6.68;4.80;;;7.80;99.90;;;;;;4945784;29;20047;-86
2024/03/31 02:31:02;;;;;;;6.93;4.68;;;7.40;99.90;;;;;;4958429;29;20054;-85
2024/03/31 02:33:29;;;;;;;7.88;4.85;;;7.40;99.90;;;;;;4957855;29;20043;-86
2024/03/31 02:35:55;;;;;;;8.70;4.85;;;7.50;99.90;;;;;;4958459;29;20136;-86
2024/03/31 02:38:22;;;;;;;7.55;4.78;;;7.40;99.90;;;;;;4958245;29;20075;-86
2024/03/31 02:40:48;;;;;;;8.10;5.13;;;7.20;99.90;;;;;;4957963;29;20123;-86
2024/03/31 02:43:15;;;;;;;10.05;5.40;;;7.60;99.90;;;;;;4960476;29;20035;-86
2024/03/31 02:45:42;;;;;;;7.32;4.57;;;7.40;99.90;;;;;;4963036;29;20163;-86
2024/03/31 02:48:08;;;;;;;7.72;4.78;;;7.10;99.90;;;;;;4957202;29;20043;-85
2024/03/31 02:50:35;;;;;;;7.50;4.75;;;7.10;99.90;;;;;;4953579;29;20051;-86
2024/03/31 02:53:01;;;;;;;7.30;4.43;;;7.10;99.90;;;;;;4971605;29;20051;-86
2024/03/31 02:55:28;;;;;;;9.07;5.20;;;7.10;99.90;;;;;;4958031;29;20400;-86
2024/03/31 02:57:55;;;;;;;7.38;4.82;;;7.10;99.90;;;;;;4962421;29;20050;-86
2024/03/31 03:00:21;;;;;;;9.32;5.40;;;7.00;99.90;;;;;;4957730;29;20513;-86
2024/03/31 03:02:49;;;;;;;9.50;5.13;;;7.00;99.90;;;;;;4973748;29;20043;-86
2024/03/31 03:05:15;;;;;;;6.85;4.53;;;7.20;99.90;;;;;;4963103;29;20122;-86
2024/03/31 03:07:42;;;;;;;9.23;5.28;;;6.90;99.90;;;;;;4957420;29;20548;-86
2024/03/31 03:10:09;;;;;;;8.93;5.30;;;7.90;99.90;;;;;;4956480;29;20053;-86
2024/03/31 03:12:35;;;;;;;8.10;5.30;;;7.50;99.90;;;;;;4957333;29;20043;-86
2024/03/31 03:15:02;;;;;;;9.13;4.70;;;6.80;99.90;;;;;;4957210;29;20043;-86
2024/03/31 03:17:29;;;;;;;7.32;4.82;;;6.80;99.90;;;;;;4956992;29;20882;-86
2024/03/31 03:19:56;;;;;;;7.53;5.00;;;7.60;99.90;;;;;;4956454;29;20123;-86
2024/03/31 03:22:23;;;;;;;7.20;4.78;;;7.50;99.90;;;;;;4957929;28;20039;-86
2024/03/31 03:24:54;;;;;;;8.35;5.47;;;6.80;99.90;;;;;;4966450;29;20043;-86
2024/03/31 03:27:20;;;;;;;8.60;5.72;;;7.20;99.90;;;;;;4956652;29;20103;-86
2024/03/31 03:29:58;;;;;;;7.22;4.90;;;6.70;99.90;;;;;;5166288;27;1293236;-86
2024/03/31 03:32:25;;;;;;;9.50;5.15;;;6.70;99.90;;;;;;5162872;27;20046;-86
2024/03/31 03:34:51;;;;;;;10.65;6.07;;;6.70;99.90;;;;;;5169325;27;20070;-86
2024/03/31 03:37:18;;;;;;;9.75;5.55;;;6.70;99.90;;;;;;5158280;27;20042;-86
2024/03/31 03:39:45;;;;;;;9.68;5.82;;;6.60;99.90;;;;;;5172958;27;20121;-86
2024/03/31 03:42:11;;;;;;;8.98;5.60;;;7.20;99.90;;;;;;5189879;27;20052;-87
2024/03/31 03:44:38;;;;;;;9.73;5.97;;;7.20;99.90;;;;;;5168653;27;20056;-87
2024/03/31 03:47:05;;;;;;;9.25;5.53;;;6.50;99.90;;;;;;5154437;27;20074;-87
2024/03/31 03:49:31;;;;;;;8.90;5.35;;;6.60;99.90;;;;;;5169137;27;20527;-87
2024/03/31 03:51:58;;;;;;;8.70;5.78;;;6.50;99.90;;;;;;5164329;27;20732;-87
2024/03/31 03:54:25;;;;;;;9.45;5.82;;;6.90;99.90;;;;;;5169983;27;20038;-87
2024/03/31 03:56:51;;;;;;;8.00;5.90;;;6.50;99.90;;;;;;5169096;27;20035;-86
2024/03/31 03:59:18;;;;;;;11.52;5.78;;;6.40;99.90;;;;;;5165223;27;20061;-86
2024/03/31 04:01:45;;;;;;;10.52;6.05;;;6.90;99.90;;;;;;5182561;27;20085;-87
2024/03/31 04:04:11;;;;;;;9.02;5.78;;;7.00;99.90;;;;;;5149902;27;20050;-87
2024/03/31 04:06:38;;;;;;;8.48;5.57;;;6.40;99.90;;;;;;5142882;27;20043;-85
2024/03/31 04:09:04;;;;;;;9.02;5.30;;;6.40;99.90;;;;;;5150974;27;20047;-84
2024/03/31 04:11:31;;;;;;;9.68;5.78;;;6.40;99.90;;;;;;5150586;27;20080;-85
2024/03/31 04:13:58;;;;;;;9.55;6.10;;;7.00;99.90;;;;;;5151420;27;20046;-85
2024/03/31 04:16:24;;;;;;;9.77;5.45;;;6.70;99.90;;;;;;5151317;27;20038;-84
2024/03/31 04:18:52;;;;;;;10.70;6.15;;;6.60;99.90;;;;;;5147649;27;20045;-85
2024/03/31 04:21:18;;;;;;;10.00;6.20;;;6.50;99.90;;;;;;5151144;27;20468;-84
2024/03/31 04:23:45;;;;;;;9.15;5.97;;;7.20;99.90;;;;;;5163492;27;20088;-85
2024/03/31 04:26:12;;;;;;;10.40;6.38;;;7.60;99.90;;;;;;5146677;27;20060;-84
2024/03/31 04:28:39;;;;;;;11.07;6.38;;;6.90;99.90;;;;;;5147585;28;20051;-85
2024/03/31 04:31:05;;;;;;;11.63;7.20;;;7.10;99.90;;;;;;5141641;28;20101;-84
2024/03/31 04:33:32;;;;;;;11.73;6.88;;;7.20;99.90;;;;;;5123408;28;20036;-84
2024/03/31 04:36:00;;;;;;;12.05;7.82;;;7.10;99.90;;;;;;5147441;28;20040;-85
2024/03/31 04:38:26;;;;;;;12.57;7.40;;;6.90;99.90;;;;;;5121426;28;20083;-84
2024/03/31 04:40:57;;;;;;;11.15;7.47;;;7.50;99.90;;;;;;5142369;28;20039;-85
2024/03/31 04:43:24;;;;;;;14.95;8.00;;;7.00;99.90;;;;;;5133526;28;20489;-84
2024/03/31 04:46:05;;;;;;;11.73;7.07;;;7.10;99.90;;;;;;5113334;28;20043;-85
2024/03/31 04:48:35;;;;;;;11.13;7.53;;;7.10;99.90;;;;;;5129777;28;20065;-84
2024/03/31 04:51:07;;;;;;;11.90;7.60;;;7.20;99.90;;;;;;5112946;28;20036;-85
2024/03/31 04:53:35;;;;;;;17.63;9.45;;;7.20;99.90;;;;;;5112707;28;20496;-85
2024/03/31 04:56:02;;;;;;;14.98;9.82;;;7.30;99.90;;;;;;5130135;28;20115;-84
2024/03/31 04:58:29;;;;;;;16.80;9.35;;;7.30;99.90;;;;;;5113619;28;20488;-85
2024/03/31 05:00:56;;;;;;;17.55;9.77;;;8.10;99.90;;;;;;5129959;28;20044;-85
2024/03/31 05:03:24;;;;;;;17.63;9.90;;;7.40;99.90;;;;;;5101786;28;20043;-85
2024/03/31 05:05:52;;;;;;;16.10;10.38;;;7.40;99.90;;;;;;5112530;28;20036;-85
2024/03/31 05:08:19;;;;;;;19.23;11.38;;;7.50;99.90;;;;;;5100550;28;20117;-85
2024/03/31 05:10:58;;;;;;;17.50;10.98;;;7.50;99.90;;;;;;5112429;28;20465;-85
2024/03/31 05:13:29;;;;;;;20.65;11.70;;;7.50;99.90;;;;;;5140101;28;20036;-85
2024/03/31 05:15:59;;;;;;;21.95;12.38;;;7.60;99.90;;;;;;5114989;28;20047;-85
2024/03/31 05:18:26;;;;;;;17.45;11.48;;;8.00;99.90;;;;;;5141171;28;20063;-84
2024/03/31 05:21:01;;;;;;;21.45;12.00;;;8.10;99.90;;;;;;5132457;28;20078;-85
2024/03/31 05:23:28;;;;;;;18.73;12.23;;;7.60;99.90;;;;;;5123859;28;20039;-85
2024/03/31 05:25:55;;;;;;;18.85;11.15;;;7.70;99.90;;;;;;5113894;28;20040;-85
2024/03/31 05:28:22;;;;;;;17.08;10.63;;;8.60;99.90;;;;;;5112748;28;20048;-85
2024/03/31 05:30:49;;;;;;;15.57;10.85;;;7.70;99.90;;;;;;5116482;28;20044;-85
2024/03/31 05:33:16;;;;;;;16.17;10.23;;;7.70;99.90;;;;;;5120098;28;20122;-85
2024/03/31 05:35:45;;;;;;;18.08;11.13;;;8.30;99.90;;;;;;5108702;28;20032;-85
2024/03/31 05:38:16;;;;;;;18.83;10.10;;;8.00;99.90;;;;;;5106090;28;20078;-85
2024/03/31 05:40:44;;;;;;;16.10;10.73;;;7.70;99.90;;;;;;5127605;28;20054;-85
2024/03/31 05:43:11;;;;;;;17.40;11.38;;;8.20;99.90;;;;;;5118693;28;20059;-85
2024/03/31 05:45:39;;;;;;;17.55;11.43;;;7.90;99.90;;;;;;5109450;28;20032;-85
2024/03/31 05:48:07;;;;;;;19.88;12.10;;;7.80;99.90;;;;;;5111597;28;20440;-85
2024/03/31 05:50:34;;;;;;;18.38;11.02;;;7.80;99.90;;;;;;5105544;28;20032;-84
2024/03/31 05:53:01;;;;;;;19.67;11.90;;;7.80;99.90;;;;;;5111928;28;20039;-84
2024/03/31 05:55:28;;;;;;;18.38;10.88;;;7.80;99.90;;;;;;5121909;28;20514;-85
2024/03/31 05:57:55;;;;;;;18.38;10.40;;;8.30;99.90;;;;;;5113702;28;20048;-84
2024/03/31 06:00:22;;;;;;;18.35;11.00;;;7.80;99.90;;;;;;5129619;28;20038;-84
2024/03/31 06:02:50;;;;;;;15.40;10.80;;;7.80;99.90;;;;;;5125146;28;20040;-84
2024/03/31 06:05:17;;;;;;;17.55;10.65;;;8.30;99.90;;;;;;5109396;28;20036;-85
2024/03/31 06:07:51;;;;;;;17.85;11.63;;;7.80;99.90;;;;;;5107362;28;20104;-85
2024/03/31 06:10:18;;;;;;;21.10;11.73;;;7.80;99.90;;;;;;5119937;28;20060;-85
2024/03/31 06:12:44;;;;;;;21.35;12.00;;;8.50;99.90;;;;;;5117448;28;20045;-85
2024/03/31 06:15:11;;;;;;;21.33;11.82;;;7.90;99.90;;;;;;5122818;28;20122;-85
2024/03/31 06:17:41;;;;;;;20.77;12.63;;;8.30;99.90;;;;;;5126331;28;20090;-84
2024/03/31 06:20:08;;;;;;;21.08;13.48;;;7.90;99.90;;;;;;5100908;28;20435;-85
2024/03/31 06:22:39;;;;;;;20.17;13.55;;;7.90;99.90;;;;;;5114626;28;20024;-85
2024/03/31 06:25:06;;;;;;;24.80;13.88;;;7.90;99.90;;;;;;5140104;28;20122;-85
2024/03/31 06:27:35;;;;;;;25.77;15.00;;;7.90;99.90;;;;;;5112487;28;20028;-85
2024/03/31 06:30:03;;;;;;;25.33;14.60;;;8.50;99.90;;;;;;5132847;28;20413;-85
2024/03/31 06:32:30;;;;;;;22.38;13.95;;;7.90;99.90;;;;;;5116920;28;20050;-84
2024/03/31 06:34:56;;;;;;;24.20;13.98;;;8.30;99.90;;;;;;5118334;28;20119;-85
2024/03/31 06:37:23;;;;;;;23.48;13.82;;;8.00;99.90;;;;;;5124543;28;20068;-85
2024/03/31 06:39:50;;;;;;;23.50;13.57;;;7.90;99.90;;;;;;5124394;28;20046;-85
2024/03/31 06:42:17;;;;;;;23.17;14.35;;;7.90;99.90;;;;;;5106794;28;20126;-85
2024/03/31 06:44:44;;;;;;;19.70;13.25;;;8.00;99.90;;;;;;5114425;28;20048;-84
2024/03/31 06:47:11;;;;;;;22.48;13.27;;;7.90;99.90;;;;;;5133554;28;20051;-84
2024/03/31 06:49:38;;;;;;;19.23;12.25;;;7.90;99.90;;;;;;5127148;28;20378;-84
2024/03/31 06:52:05;;;;;;;19.30;12.30;;;7.90;99.90;;;;;;5118876;28;20550;-85
2024/03/31 06:54:31;;;;;;;18.35;10.80;;;7.90;99.90;;;;;;5110528;28;20119;-84
2024/03/31 06:56:58;;;;;;;14.90;10.13;;;7.90;99.90;;;;;;5116804;28;20036;-85
2024/03/31 06:59:25;;;;;;;14.25;9.23;;;8.10;99.90;;;;;;5130428;28;20066;-85
2024/03/31 07:01:51;;;;;;;15.23;9.45;;;7.90;99.90;;;;;;5118374;28;20039;-85
2024/03/31 07:04:18;;;;;;;12.23;7.53;;;8.00;99.90;;;;;;5122900;28;20114;-85
2024/03/31 07:06:45;;;;;;;10.80;7.72;;;8.00;99.90;;;;;;5116827;28;20452;-84
2024/03/31 07:09:12;;;;;;;9.73;7.57;;;8.10;99.90;;;;;;5111749;28;20412;-84
2024/03/31 07:11:39;;;;;;;9.88;6.80;;;8.10;99.90;;;;;;5097687;28;20032;-87
2024/03/31 07:14:05;;;;;;;10.85;7.03;;;8.10;99.90;;;;;;5117195;28;20047;-87
2024/03/31 07:16:32;;;;;;;10.00;6.72;;;8.20;99.90;;;;;;5110248;28;20039;-86
2024/03/31 07:18:59;;;;;;;12.40;7.50;;;8.20;99.90;;;;;;5122335;28;20522;-87
2024/03/31 07:21:26;;;;;;;14.25;7.38;;;8.30;99.90;;;;;;5114402;28;20071;-87
2024/03/31 07:23:52;;;;;;;10.82;6.88;;;8.30;99.90;;;;;;5124195;28;20072;-87
2024/03/31 07:26:19;;;;;;;11.25;6.55;;;8.60;99.90;;;;;;5123273;28;20032;-85
2024/03/31 07:28:45;;;;;;;9.93;6.85;;;8.90;99.90;;;;;;5113038;28;20415;-85
2024/03/31 07:31:12;;;;;;;10.98;6.85;;;8.70;99.90;;;;;;5139904;28;20599;-85
2024/03/31 07:33:39;;;;;;;10.40;7.07;;;8.40;99.90;;;;;;5112576;28;20545;-85
2024/03/31 07:36:05;;;;;;;9.30;6.63;;;8.50;99.90;;;;;;5110415;28;20078;-86
2024/03/31 07:38:32;;;;;;;11.85;6.47;;;8.50;99.90;;;;;;5107008;28;20043;-86
2024/03/31 07:40:59;;;;;;;9.07;6.47;;;8.60;99.90;;;;;;5123167;28;20085;-85
2024/03/31 07:43:26;;;;;;;9.32;6.70;;;8.80;99.90;;;;;;5110407;28;20044;-85
2024/03/31 07:45:52;;;;;;;10.25;6.57;;;8.50;99.90;;;;;;5113951;28;20404;-84
2024/03/31 07:48:20;;;;;;;9.95;6.75;;;9.20;99.90;;;;;;5113638;28;20040;-85
2024/03/31 07:50:47;;;;;;;10.20;6.38;;;8.50;99.90;;;;;;5110389;28;20081;-85
2024/03/31 07:53:13;;;;;;;11.13;6.85;;;8.50;99.90;;;;;;5114599;28;20040;-84
2024/03/31 07:55:40;;;;;;;10.88;6.85;;;8.60;99.90;;;;;;5106402;28;20106;-85
2024/03/31 07:58:07;;;;;;;11.52;6.72;;;8.50;99.90;;;;;;5107428;28;20044;-86
2024/03/31 08:00:34;;;;;;;8.95;7.00;;;8.50;99.90;;;;;;5109337;28;20042;-86
2024/03/31 08:03:00;;;;;;;10.13;7.57;;;8.50;99.90;;;;;;5111257;28;20043;-87
2024/03/31 08:05:27;;;;;;;9.48;6.60;;;9.60;99.90;;;;;;5123469;28;20132;-87
2024/03/31 08:07:54;;;;;;;12.10;8.23;;;8.50;99.90;;;;;;5129390;28;20039;-87
2024/03/31 08:10:21;;;;;;;12.90;8.15;;;9.50;99.90;;;;;;5126516;28;20032;-87
2024/03/31 08:12:48;;;;;;;12.63;8.63;;;9.30;99.90;;;;;;5109315;28;20040;-87
2024/03/31 08:15:14;;;;;;;13.40;8.75;;;8.90;99.90;;;;;;5108584;28;20043;-84
2024/03/31 08:17:41;;;;;;;15.32;8.88;;;8.60;99.90;;;;;;5111191;28;20038;-85
2024/03/31 08:20:08;;;;;;;15.82;9.95;;;8.60;99.90;;;;;;5105331;28;20076;-84
2024/03/31 08:22:35;;;;;;;12.82;8.80;;;8.60;99.90;;;;;;5106971;28;20036;-85
2024/03/31 08:25:02;;;;;;;14.90;10.18;;;8.50;99.90;;;;;;5100933;28;20677;-85
2024/03/31 08:27:28;;;;;;;17.00;10.40;;;8.60;99.90;;;;;;5124440;28;20405;-85
2024/03/31 08:29:55;;;;;;;14.55;10.20;;;8.60;99.90;;;;;;5117858;28;20047;-85
2024/03/31 08:32:22;;;;;;;16.48;10.50;;;8.60;99.90;;;;;;5130390;28;20081;-84
2024/03/31 08:34:50;;;;;;;16.73;11.27;;;8.70;99.90;;;;;;5127626;28;20120;-83
2024/03/31 08:37:17;;;;;;;16.08;11.10;;;8.80;99.90;;;;;;5122778;28;20070;-85
2024/03/31 08:39:44;;;;;;;20.33;12.38;;;8.80;99.90;;;;;;5133290;28;20588;-84
2024/03/31 08:42:21;;;;;;;16.75;11.38;;;8.90;99.90;;;;;;5126034;28;20078;-85
2024/03/31 08:44:52;;;;;;;17.58;10.85;;;8.90;99.90;;;;;;5130142;28;20074;-84
2024/03/31 08:47:29;;;;;;;20.60;11.85;;;9.40;99.90;;;;;;5128877;28;20430;-84
2024/03/31 08:49:56;;;;;;;16.80;11.02;;;9.40;99.90;;;;;;5126883;28;20130;-84
2024/03/31 08:52:23;;;;;;;19.23;11.52;;;9.20;99.90;;;;;;5131651;28;20088;-84
2024/03/31 08:54:53;;;;;;;17.85;11.50;;;9.40;99.90;;;;;;5145252;28;20119;-85
2024/03/31 08:57:20;;;;;;;18.52;11.13;;;9.50;99.90;;;;;;5126029;28;20047;-84
2024/03/31 08:59:47;;;;;;;15.60;10.52;;;9.70;99.90;;;;;;5128334;28;20039;-84
2024/03/31 09:02:17;;;;;;;15.60;10.88;;;9.90;99.90;;;;;;5127981;28;20050;-82
2024/03/31 09:04:44;;;;;;;15.93;10.93;;;9.70;99.90;;;;;;5129717;28;20108;-82
2024/03/31 09:07:10;;;;;;;18.75;10.98;;;10.60;99.90;;;;;;5132621;28;20094;-83
2024/03/31 09:09:41;;;;;;;15.38;10.60;;;9.90;99.90;;;;;;5128154;28;20105;-83
2024/03/31 09:12:12;;;;;;;14.65;10.45;;;9.90;99.90;;;;;;5128908;28;20032;-83
2024/03/31 09:14:39;;;;;;;17.50;10.20;;;9.90;99.90;;;;;;5130325;28;20050;-83
2024/03/31 09:17:09;;;;;;;18.10;11.13;;;10.00;99.90;;;;;;5131643;27;20035;-82
2024/03/31 09:19:38;;;;;;;17.13;10.75;;;10.10;99.90;;;;;;5130525;28;20031;-83
2024/03/31 09:22:05;;;;;;;18.92;11.32;;;10.20;99.90;;;;;;5127197;28;20080;-82
2024/03/31 09:24:32;;;;;;;13.82;9.98;;;10.30;99.90;;;;;;5125616;28;20032;-83
2024/03/31 09:27:00;;;;;;;17.35;10.63;;;10.50;99.90;;;;;;5125161;28;20031;-82
2024/03/31 09:29:27;;;;;;;16.23;10.60;;;10.90;99.90;;;;;;5130820;28;20074;-83
2024/03/31 09:32:07;;;;;;;13.20;9.27;;;10.30;99.90;;;;;;5119041;28;20500;-83
2024/03/31 09:34:34;;;;;;;13.80;9.15;;;10.30;99.90;;;;;;5120764;28;20423;-83
2024/03/31 09:37:01;;;;;;;13.52;9.02;;;10.50;99.90;;;;;;5122223;28;20135;-82
2024/03/31 09:39:28;;;;;;;17.83;11.40;;;10.30;99.90;;;;;;5138715;28;20043;-83
2024/03/31 09:41:55;;;;;;;13.85;9.40;;;10.30;99.90;;;;;;5128657;28;20492;-83
2024/03/31 09:44:22;;;;;;;13.52;9.50;;;10.30;99.90;;;;;;5128171;28;20092;-83
2024/03/31 09:46:49;;;;;;;14.30;9.57;;;10.60;99.90;;;;;;5130456;28;20488;-83
2024/03/31 09:49:31;;;;;;;14.23;9.13;;;10.50;99.90;;;;;;5129494;28;20044;-83
2024/03/31 09:52:01;;;;;;;14.10;9.50;;;11.10;99.90;;;;;;5124867;28;20515;-83
2024/03/31 09:54:42;;;;;;;15.73;9.63;;;10.40;99.90;;;;;;5127334;28;20100;-83
2024/03/31 09:57:13;;;;;;;14.30;9.73;;;10.40;99.90;;;;;;5143680;28;20073;-83
2024/03/31 09:59:54;;;;;;;14.55;8.98;;;10.50;99.90;;;;;;5114783;28;20115;-83
2024/03/31 10:02:21;;;;;;;15.20;10.45;;;10.60;99.90;;;;;;5123901;28;20042;-83
2024/03/31 10:04:48;;;;;;;15.13;10.07;;;10.70;99.90;;;;;;5128344;28;20043;-83
2024/03/31 10:07:17;;;;;;;15.50;10.07;;;10.90;99.90;;;;;;5125407;28;20031;-82
2024/03/31 10:09:43;;;;;;;12.52;9.10;;;11.00;99.90;;;;;;5118913;28;20036;-82
2024/03/31 10:12:10;;;;;;;14.48;9.65;;;11.20;99.90;;;;;;5140487;28;20039;-83
2024/03/31 10:14:40;;;;;;;13.02;9.07;;;11.50;99.90;;;;;;5125385;28;20046;-83
2024/03/31 10:17:07;;;;;;;14.15;8.80;;;11.80;99.90;;;;;;5119622;28;20144;-83
2024/03/31 10:19:36;;;;;;;11.07;7.65;;;11.90;99.90;;;;;;5128779;28;20066;-85
2024/03/31 10:22:05;;;;;;;12.40;7.90;;;11.70;99.90;;;;;;5130828;28;20035;-84
2024/03/31 10:24:33;;;;;;;10.77;7.68;;;11.70;99.90;;;;;;5126830;28;20085;-83
2024/03/31 10:27:00;;;;;;;10.13;7.20;;;11.90;99.90;;;;;;5121974;28;20035;-83
2024/03/31 10:29:27;;;;;;;12.43;7.90;;;11.50;99.90;;;;;;5117065;28;20048;-83
2024/03/31 10:31:54;;;;;;;11.82;7.30;;;11.30;99.90;;;;;;5138937;28;20031;-85
2024/03/31 10:34:21;;;;;;;11.00;7.55;;;11.50;99.90;;;;;;5131297;28;20043;-85
2024/03/31 10:36:48;;;;;;;9.15;6.65;;;11.30;99.90;;;;;;5137606;28;20480;-85
2024/03/31 10:39:20;;;;;;;10.05;7.03;;;11.30;99.90;;;;;;5128419;28;20052;-86
2024/03/31 10:41:47;;;;;;;10.25;6.85;;;11.30;99.90;;;;;;5117622;28;20044;-85
2024/03/31 10:44:14;;;;;;;10.02;6.43;;;11.30;99.90;;;;;;5129201;28;20502;-83
2024/03/31 10:46:42;;;;;;;9.60;6.25;;;11.60;99.90;;;;;;5124443;28;20043;-85
2024/03/31 10:49:10;;;;;;;9.10;6.10;;;11.40;99.90;;;;;;5129029;28;20039;-83
2024/03/31 10:51:41;;;;;;;8.32;6.07;;;11.60;99.90;;;;;;5144189;28;20031;-83
2024/03/31 10:54:27;;;;;;;9.25;5.75;;;11.70;99.90;;;;;;5130346;28;20024;-83
2024/03/31 10:57:01;;;;;;;9.95;5.93;;;11.90;99.90;;;;;;5121788;28;20035;-83
2024/03/31 10:59:31;;;;;;;8.73;5.65;;;12.40;99.90;;;;;;5123342;28;20042;-83
2024/03/31 11:02:11;;;;;;;8.98;5.47;;;12.40;99.90;;;;;;5129766;28;20040;-83
2024/03/31 11:04:37;;;;;;;8.90;5.63;;;12.60;99.90;;;;;;5130199;28;20043;-83
2024/03/31 11:07:11;;;;;;;8.18;5.57;;;12.70;99.90;;;;;;5130220;28;20412;-84
2024/03/31 11:09:38;;;;;;;8.80;5.22;;;12.60;99.90;;;;;;5120930;28;20061;-83
2024/03/31 11:12:07;;;;;;;7.60;5.35;;;12.70;99.90;;;;;;5129632;28;20038;-83
2024/03/31 11:14:34;;;;;;;8.82;5.47;;;12.70;99.90;;;;;;5136376;28;20035;-83
2024/03/31 11:17:01;;;;;;;8.82;5.85;;;12.80;99.90;;;;;;5125990;28;20042;-83
2024/03/31 11:19:28;;;;;;;12.45;5.30;;;12.90;99.90;;;;;;5123388;28;20148;-83
2024/03/31 11:22:05;;;;;;;9.90;6.28;;;12.90;99.90;;;;;;5128721;28;20077;-83
2024/03/31 11:24:33;;;;;;;9.18;5.80;;;13.00;99.90;;;;;;5142408;28;20696;-84
2024/03/31 11:27:01;;;;;;;7.45;5.45;;;12.90;99.90;;;;;;5122833;28;20104;-84
2024/03/31 11:29:29;;;;;;;8.32;5.60;;;12.90;99.90;;;;;;5117877;28;20039;-84
2024/03/31 11:31:58;;;;;;;9.18;6.47;;;12.80;99.90;;;;;;5142310;28;20079;-83
2024/03/31 11:34:26;;;;;;;8.02;6.07;;;12.90;99.90;;;;;;5121769;28;20080;-84
2024/03/31 11:36:52;;;;;;;10.73;6.43;;;12.70;99.90;;;;;;5122711;28;20134;-84
2024/03/31 11:39:19;;;;;;;13.10;6.38;;;12.80;99.90;;;;;;5138928;28;20118;-83
2024/03/31 11:41:46;;;;;;;9.50;6.15;;;12.90;99.90;;;;;;5140240;28;20086;-84
2024/03/31 11:44:14;;;;;;;10.18;6.55;;;12.90;99.90;;;;;;5128811;28;20034;-84
2024/03/31 11:46:41;;;;;;;10.43;6.22;;;13.00;99.90;;;;;;5116164;28;20547;-84
2024/03/31 11:49:08;;;;;;;9.68;6.55;;;13.00;99.90;;;;;;5126479;28;20035;-84
2024/03/31 11:51:39;;;;;;;9.68;6.72;;;13.10;99.90;;;;;;5127407;28;20032;-84
2024/03/31 11:54:07;;;;;;;11.85;7.32;;;13.10;99.90;;;;;;5127023;28;20036;-84
2024/03/31 11:56:39;;;;;;;9.13;6.25;;;13.20;99.90;;;;;;5133532;28;20040;-84
2024/03/31 11:59:17;;;;;;;13.15;7.32;;;13.30;99.90;;;;;;5132844;28;20078;-84
2024/03/31 12:01:44;;;;;;;12.88;7.57;;;13.50;99.90;;;;;;5133822;28;20058;-84
2024/03/31 12:04:15;;;;;;;12.50;8.20;;;13.50;99.90;;;;;;5127240;28;20040;-84
2024/03/31 12:06:42;;;;;;;10.40;7.63;;;13.80;99.90;;;;;;5133364;28;20034;-84
2024/03/31 12:09:10;;;;;;;10.80;7.65;;;13.50;99.90;;;;;;5127807;28;20515;-84
2024/03/31 12:11:41;;;;;;;11.10;7.70;;;13.40;99.90;;;;;;5125179;28;20097;-84
2024/03/31 12:14:08;;;;;;;12.68;8.38;;;13.40;99.90;;;;;;5114796;28;20382;-84
2024/03/31 12:16:35;;;;;;;11.40;8.10;;;13.40;99.90;;;;;;5132764;28;20028;-84
2024/03/31 12:19:01;;;;;;;11.50;7.65;;;13.50;99.90;;;;;;5129202;28;20054;-84
2024/03/31 12:21:28;;;;;;;12.77;8.10;;;13.60;99.90;;;;;;5126814;28;20039;-84
2024/03/31 12:23:56;;;;;;;13.45;9.07;;;13.70;99.90;;;;;;5131672;28;20052;-85
2024/03/31 12:26:24;;;;;;;10.90;8.40;;;13.80;99.90;;;;;;5131287;28;20036;-84
2024/03/31 12:28:51;;;;;;;12.55;8.52;;;13.80;99.90;;;;;;5127083;28;20463;-84
2024/03/31 12:31:20;;;;;;;14.35;9.32;;;13.90;99.90;;;;;;5147307;28;20123;-84
2024/03/31 12:33:47;;;;;;;13.77;8.50;;;14.00;99.90;;;;;;5123498;28;20035;-84
2024/03/31 12:36:15;;;;;;;13.27;9.20;;;14.10;99.90;;;;;;5127548;28;20036;-84
2024/03/31 12:38:42;;;;;;;13.32;8.82;;;14.10;99.90;;;;;;5128768;28;20112;-85
2024/03/31 12:41:12;;;;;;;11.95;8.35;;;14.00;99.90;;;;;;5113376;28;20492;-87
2024/03/31 12:43:39;;;;;;;13.57;9.43;;;14.20;99.90;;;;;;5121806;28;20114;-86
2024/03/31 12:46:08;;;;;;;14.55;9.82;;;14.20;99.90;;;;;;5146278;28;20043;-85
2024/03/31 12:48:37;;;;;;;13.95;9.52;;;14.20;99.90;;;;;;5129550;28;20040;-85